Hauptseite
METAR-TAF:

METAR-TAF

Flughäfen :

Flughafen Miyako

Miyako-jima, Japan

Breite: 24-47N, Länge: 125-17E, Höhe: 40 m

Beobachtung

Neuester Wetterbericht von vor 28 Minuten, um 07:00 UTC
Wind 12 kt aus Nord/Nordost
Temperatur 25°C
Luftfeuchtigkeit 74%
Luftdruck 1009 hPa
Sichtweite 10 km oder mehr
Leicht bewölkt in der Höhe von 2200 ft
Aufgelockert bewölkt in der Höhe von 10000 ft

METAR: ROMY 180700Z 03012KT 9999 FEW022 SCT100 25/20 Q1009

Zeit: 16:28 (07:28 UTC)


TAF: fehlend

Wetterbeobachtungen und Prognosen von mehr als 4000 Flughäfen (METAR und TAF Bericht).

Die verfügbaren Stationen werden durch gelbe und rote Markierungen auf der Karte dargestellt.

Führen Sie die Maus auf sie, um den Namen der Station zu sehen.

Darauf klicken, um die Beobachtung von Wetterbeobachtungen und Prognosen zu sehen.

Um die Karte zu ändern : klicken Sie auf den grünen Tasten mit einem schwarzen Kreuz Zum Vergrößern, auf den grünen Button mit einem Gedankenstrich zu verkleinern, oder auf die grünen Pfeile für benachbarte Karten.


METAR-TAF: